Startpagina
METAR-TAF:

METAR-TAF

Vliegvelden :

Flughafen Weeze

Weeze, Duitsland

breedte: 51-36-09N, lengte: 006-08-32E, hoogte: 32 m

Actueel weer

Dit bericht is 19 minuten geleden gemaakt, om 07:50 UTC
Wind 5 kt uit het zuidzuidoosten
Temperatuur 8°C
Vochtigheid 93%
Druk 1023 hPa
Zicht 10 km of meer
geen wolken onder 1500 m en geen cumulonimbus

METAR: EDLV 180750Z 15005KT CAVOK 08/07 Q1023

Tijdstip: 10:09 (08:09 UTC)

Verwachting

Dit bericht is 3 uur en het 9 minuten geleden gemaakt, om 05:00 UTC
Verwachting geldig van 18 om 06 UTC tot 19 om 06 UTC
Wind 6 kt uit het zuidzuidoosten
Zicht 10 km of meer
geen wolken onder 1500 m en geen cumulonimbus
Kans 40% :
Tijdelijke
van 19 om 02 UTC tot 19 om 06 UTC
Zicht: 4500 m
Gebroken wolken op 800 ft
regen

TAF: EDLV 180500Z 1806/1906 15006KT CAVOK PROB40 TEMPO 1902/1906 4500 RA BKN008

Waarnemingen en weersverwachtingen van meer dan 4000 vliegvelden (METAR en TAF).

De beschikbare stations zijn de gele en rode punten op de kaart.

Ga met uw muis naar het station om de naam te zien.

Klik dan om waarnemingen en weersverwachtingen te zien.

kaart wijzigen: klik op de groene knoppen met een zwart kruis om in te zoomen, op de groene knop met een streepje om uit te zoomen of op de groene pijlen voor aangrenzende kaarten.


METAR-TAF: